Time;durP1;ratioP1;P1;durP2;ratioP2;P2;SDS_P1;SDS_P2;PMS_P1;PMS_P2;Temp;Humidity;BMP_temperature;BMP_pressure;BME280_temperature;BME280_humidity;BME280_pressure;Samples;Min_cycle;Max_cycle;Signal;HPM_P1;HPM_P2
2022/05/07 00:00:06;;;;;;;10.90;9.05;;;17.70;62.90;;;;;;10416423;28;20029;-49
2022/05/07 00:05:08;;;;;;;10.48;9.18;;;17.60;62.90;;;;;;10415703;28;20037;-48
2022/05/07 00:10:09;;;;;;;9.90;8.85;;;17.60;62.90;;;;;;10415706;28;20033;-50
2022/05/07 00:15:09;;;;;;;9.05;8.25;;;17.60;62.80;;;;;;10415352;28;20091;-49
2022/05/07 00:20:11;;;;;;;8.73;7.93;;;17.60;62.80;;;;;;10398039;28;20036;-51
2022/05/07 00:25:12;;;;;;;10.35;8.93;;;17.60;63.40;;;;;;10413403;28;20037;-47
2022/05/07 00:30:12;;;;;;;9.45;8.45;;;17.60;62.80;;;;;;10414588;28;20042;-49
2022/05/07 00:35:13;;;;;;;9.57;8.77;;;17.60;62.80;;;;;;10414753;28;20029;-45
2022/05/07 00:40:14;;;;;;;8.63;7.82;;;17.60;62.80;;;;;;10414286;28;20029;-48
2022/05/07 00:45:15;;;;;;;10.20;9.18;;;17.60;62.80;;;;;;10414412;28;20029;-47
2022/05/07 00:55:35;;;;;;;8.98;8.02;;;17.60;62.80;;;;;;10412828;28;20042;-47
2022/05/07 01:00:36;;;;;;;10.05;8.60;;;17.60;62.70;;;;;;10412412;28;20037;-47
2022/05/07 01:05:37;;;;;;;9.35;8.45;;;17.60;62.70;;;;;;10413684;28;20057;-48
2022/05/07 01:10:39;;;;;;;9.52;8.52;;;17.60;62.70;;;;;;10413631;28;20485;-47
2022/05/07 01:15:47;;;;;;;9.80;8.73;;;17.60;63.30;;;;;;10413195;28;20061;-47
2022/05/07 01:20:48;;;;;;;8.85;8.02;;;17.60;62.70;;;;;;10412487;28;20052;-47
2022/05/07 01:25:48;;;;;;;9.18;8.27;;;17.60;62.60;;;;;;10413358;28;20203;-48
2022/05/07 01:30:49;;;;;;;9.43;8.38;;;17.60;62.50;;;;;;10412538;28;20117;-48
2022/05/07 01:35:49;;;;;;;8.43;7.63;;;17.60;62.60;;;;;;10412948;28;20064;-47
2022/05/07 01:40:50;;;;;;;9.50;8.57;;;17.60;62.70;;;;;;10411909;28;20123;-49
2022/05/07 01:45:51;;;;;;;10.45;9.40;;;17.60;62.60;;;;;;10412721;28;20505;-46
2022/05/07 01:50:51;;;;;;;8.30;7.50;;;17.50;62.60;;;;;;10416639;28;20048;-46
2022/05/07 01:55:53;;;;;;;8.25;7.45;;;17.50;62.50;;;;;;10420867;28;20397;-48
2022/05/07 02:00:54;;;;;;;8.13;7.22;;;17.50;62.50;;;;;;10420958;28;20099;-48
2022/05/07 02:05:55;;;;;;;9.43;7.70;;;17.50;62.50;;;;;;10420454;28;20587;-47
2022/05/07 02:10:59;;;;;;;8.52;7.80;;;17.50;62.50;;;;;;10420463;28;20454;-47
2022/05/07 02:15:59;;;;;;;8.02;7.25;;;17.50;62.40;;;;;;10419886;28;20035;-46
2022/05/07 02:21:00;;;;;;;8.40;7.55;;;17.50;62.50;;;;;;10419789;28;20043;-49
2022/05/07 02:26:01;;;;;;;9.10;8.23;;;17.50;62.50;;;;;;10419426;28;20119;-46
2022/05/07 02:31:01;;;;;;;8.43;7.70;;;17.50;62.50;;;;;;10419477;28;20040;-46
2022/05/07 02:36:02;;;;;;;8.23;7.50;;;17.50;62.40;;;;;;10419294;28;20061;-48
2022/05/07 02:46:22;;;;;;;8.15;7.38;;;17.50;62.50;;;;;;10418723;28;20045;-48
2022/05/07 02:51:23;;;;;;;8.18;7.40;;;17.50;62.50;;;;;;10418969;28;20057;-46
2022/05/07 02:56:24;;;;;;;7.65;7.05;;;17.50;62.50;;;;;;10425240;28;20117;-49
2022/05/07 03:01:24;;;;;;;8.45;7.75;;;17.40;62.50;;;;;;10433375;28;20033;-47
2022/05/07 03:06:25;;;;;;;8.15;7.35;;;17.50;62.40;;;;;;10408215;28;20467;-47
2022/05/07 03:11:26;;;;;;;8.90;8.00;;;17.40;62.40;;;;;;10377169;28;20478;-47
2022/05/07 03:16:27;;;;;;;8.68;7.78;;;17.40;62.40;;;;;;10411608;28;20056;-47
2022/05/07 03:21:27;;;;;;;8.82;7.93;;;17.40;62.40;;;;;;10416176;28;20036;-46
2022/05/07 03:26:28;;;;;;;7.63;6.68;;;17.40;62.40;;;;;;10417078;28;20049;-48
2022/05/07 03:31:30;;;;;;;7.82;6.90;;;17.40;62.40;;;;;;10417302;28;20045;-48
2022/05/07 03:36:30;;;;;;;16.27;7.60;;;17.40;62.40;;;;;;10391024;28;20548;-48
2022/05/07 03:41:31;;;;;;;8.00;7.25;;;17.40;62.40;;;;;;10409808;28;20061;-49
2022/05/07 03:46:32;;;;;;;8.20;7.00;;;17.40;62.40;;;;;;10416326;28;20026;-48
2022/05/07 03:53:29;;;;;;;8.10;7.30;;;17.40;62.40;;;;;;10416536;28;20099;-48
2022/05/07 03:56:53;;;;;;;7.53;6.72;;;17.40;62.40;;;;;;10416080;28;20128;-47
2022/05/07 04:01:54;;;;;;;8.13;7.43;;;17.40;62.40;;;;;;10415948;28;20022;-46
2022/05/07 04:06:54;;;;;;;8.10;7.30;;;17.40;62.40;;;;;;10413274;28;20033;-49
2022/05/07 04:11:55;;;;;;;8.38;7.57;;;17.40;62.50;;;;;;10411555;28;20113;-48
2022/05/07 04:16:56;;;;;;;7.45;6.75;;;17.40;62.50;;;;;;10414432;28;20477;-48
2022/05/07 04:21:56;;;;;;;7.65;6.95;;;17.30;62.40;;;;;;10415403;28;20053;-47
2022/05/07 04:26:57;;;;;;;7.43;6.70;;;17.40;62.50;;;;;;10414899;28;20057;-48
2022/05/07 04:31:58;;;;;;;7.82;7.13;;;17.30;62.40;;;;;;10413776;28;20108;-47
2022/05/07 04:36:58;;;;;;;7.40;6.70;;;17.30;62.40;;;;;;10413616;28;20171;-50
2022/05/07 04:42:00;;;;;;;7.28;6.68;;;17.30;62.40;;;;;;10413460;28;20052;-47
2022/05/07 04:47:01;;;;;;;7.70;6.88;;;17.30;62.40;;;;;;10407388;28;20025;-48
2022/05/07 04:52:05;;;;;;;7.70;7.00;;;17.30;62.40;;;;;;10410227;28;20040;-48
2022/05/07 04:57:06;;;;;;;7.70;6.95;;;17.30;62.50;;;;;;10411267;28;20542;-47
2022/05/07 05:02:06;;;;;;;7.88;7.00;;;17.30;62.40;;;;;;10399914;28;20030;-47
2022/05/07 05:07:07;;;;;;;7.65;6.95;;;17.30;62.50;;;;;;10408477;28;20369;-47
2022/05/07 05:12:08;;;;;;;7.63;6.93;;;17.30;62.50;;;;;;10403407;28;20057;-47
2022/05/07 05:17:09;;;;;;;7.60;6.80;;;17.30;62.50;;;;;;10375807;28;20045;-47
2022/05/07 05:22:10;;;;;;;7.07;6.40;;;17.30;62.50;;;;;;10410655;28;20038;-47
2022/05/07 05:27:14;;;;;;;7.32;6.53;;;17.30;62.50;;;;;;10412452;28;20128;-48
2022/05/07 05:32:18;;;;;;;9.32;7.15;;;17.30;62.50;;;;;;10398749;28;20359;-46
2022/05/07 05:37:18;;;;;;;8.00;7.20;;;17.30;62.60;;;;;;10412909;28;20026;-48
2022/05/07 05:42:19;;;;;;;12.00;7.78;;;17.30;62.70;;;;;;10412499;28;20025;-48
2022/05/07 05:47:20;;;;;;;9.95;7.78;;;17.40;63.80;;;;;;10411441;28;20038;-47
2022/05/07 05:52:20;;;;;;;21.30;9.68;;;17.50;64.50;;;;;;10412561;28;20068;-52
2022/05/07 05:57:22;;;;;;;11.65;7.20;;;17.60;65.70;;;;;;10412865;28;20117;-47
2022/05/07 06:02:23;;;;;;;17.10;8.77;;;17.70;64.30;;;;;;10412237;28;20445;-48
2022/05/07 06:07:23;;;;;;;22.45;9.48;;;17.70;64.30;;;;;;10412167;28;20120;-48
2022/05/07 06:12:24;;;;;;;22.23;8.23;;;17.60;64.10;;;;;;10412313;28;20049;-49
2022/05/07 06:17:28;;;;;;;21.85;8.57;;;17.50;64.40;;;;;;10411906;28;20112;-49
2022/05/07 06:22:28;;;;;;;25.80;10.38;;;17.50;64.60;;;;;;10412394;28;20043;-49
2022/05/07 06:27:31;;;;;;;25.70;9.85;;;17.50;65.10;;;;;;10410620;28;20080;-48
2022/05/07 06:32:34;;;;;;;20.30;10.20;;;17.60;65.10;;;;;;10412205;28;20049;-48
2022/05/07 06:37:38;;;;;;;28.75;14.27;;;17.60;65.20;;;;;;10416808;28;20411;-47
2022/05/07 06:42:40;;;;;;;30.63;12.65;;;17.60;65.20;;;;;;10418235;28;20057;-48
2022/05/07 06:47:40;;;;;;;25.00;13.45;;;17.60;65.40;;;;;;10418051;28;20125;-50
2022/05/07 06:52:45;;;;;;;31.55;13.65;;;17.60;65.40;;;;;;10415138;28;20500;-49
2022/05/07 06:57:46;;;;;;;27.40;12.55;;;17.60;65.40;;;;;;10415415;28;20120;-47
2022/05/07 07:02:49;;;;;;;23.10;13.55;;;17.60;65.50;;;;;;10416586;28;20025;-45
2022/05/07 07:07:50;;;;;;;26.15;13.23;;;17.60;65.50;;;;;;10416635;28;20482;-47
2022/05/07 07:12:51;;;;;;;26.00;12.35;;;17.60;65.20;;;;;;10416646;28;20021;-47
2022/05/07 07:17:51;;;;;;;23.20;12.85;;;17.60;65.00;;;;;;10416872;28;20623;-46
2022/05/07 07:22:52;;;;;;;19.75;12.82;;;17.60;64.80;;;;;;10417041;28;20063;-47
2022/05/07 07:27:52;;;;;;;23.50;12.63;;;17.50;64.80;;;;;;10416501;28;20124;-46
2022/05/07 07:32:53;;;;;;;22.52;12.00;;;17.60;64.90;;;;;;10417102;28;20049;-46
2022/05/07 07:37:54;;;;;;;22.52;11.70;;;17.50;64.80;;;;;;10415311;28;20033;-47
2022/05/07 07:42:55;;;;;;;26.15;12.05;;;17.60;64.80;;;;;;10415996;28;20103;-46
2022/05/07 07:48:05;;;;;;;24.50;12.27;;;17.60;64.80;;;;;;10415130;28;20029;-47
2022/05/07 07:53:11;;;;;;;24.20;14.30;;;17.60;64.80;;;;;;10415026;28;20079;-47
2022/05/07 07:58:12;;;;;;;26.77;12.40;;;17.70;64.80;;;;;;10374120;28;20033;-46
2022/05/07 08:03:16;;;;;;;25.63;12.18;;;17.60;64.50;;;;;;10408679;28;20053;-47
2022/05/07 08:13:41;;;;;;;20.45;11.68;;;17.70;64.20;;;;;;10414981;28;20042;-48
2022/05/07 08:18:42;;;;;;;18.75;10.73;;;17.70;64.20;;;;;;10414991;28;20025;-47
2022/05/07 08:23:43;;;;;;;26.60;12.30;;;17.70;64.20;;;;;;10414596;28;20450;-49
2022/05/07 08:28:44;;;;;;;16.58;10.52;;;17.70;64.30;;;;;;10412138;28;20107;-49
2022/05/07 08:33:45;;;;;;;16.90;9.40;;;17.70;64.30;;;;;;10423023;28;20021;-47
2022/05/07 08:38:45;;;;;;;18.05;9.18;;;17.70;64.40;;;;;;10413265;28;20108;-47
2022/05/07 08:43:46;;;;;;;18.65;10.38;;;17.70;64.50;;;;;;10403980;28;20481;-50
2022/05/07 08:48:51;;;;;;;26.92;12.55;;;17.80;64.60;;;;;;10413873;28;20090;-49
2022/05/07 08:53:55;;;;;;;25.30;10.30;;;17.80;65.70;;;;;;10390462;28;20029;-52
2022/05/07 08:58:55;;;;;;;34.03;12.00;;;17.80;64.70;;;;;;10388201;28;20033;-49
2022/05/07 09:04:07;;;;;;;20.67;9.57;;;17.90;64.90;;;;;;10377386;28;20094;-54
2022/05/07 09:09:07;;;;;;;24.77;10.90;;;18.00;64.80;;;;;;10425088;28;20041;-51
2022/05/07 09:14:09;;;;;;;30.60;9.55;;;17.90;64.70;;;;;;10409726;28;20131;-50
2022/05/07 09:19:30;;;;;;;24.02;9.63;;;17.90;64.80;;;;;;10411206;28;20044;-48
2022/05/07 09:24:31;;;;;;;19.20;9.65;;;18.00;64.80;;;;;;10411600;28;20026;-49
2022/05/07 09:29:33;;;;;;;19.95;9.02;;;17.90;64.80;;;;;;10410151;28;20100;-47
2022/05/07 09:40:14;;;;;;;22.50;9.43;;;18.00;64.80;;;;;;10410459;28;20065;-48
2022/05/07 09:45:17;;;;;;;18.92;9.48;;;18.00;64.70;;;;;;10412676;28;20053;-48
2022/05/07 09:50:43;;;;;;;15.07;8.35;;;18.00;64.70;;;;;;10411465;28;20116;-48
2022/05/07 10:01:45;;;;;;;13.90;9.05;;;18.00;65.30;;;;;;10411524;28;20041;-47
2022/05/07 10:07:39;;;;;;;14.57;9.68;;;18.10;64.60;;;;;;10400302;28;20041;-49
2022/05/07 10:12:45;;;;;;;13.57;9.13;;;18.10;64.50;;;;;;10417368;28;20470;-47
2022/05/07 10:17:56;;;;;;;12.63;8.10;;;18.20;64.50;;;;;;10401078;28;20384;-48
2022/05/07 10:22:57;;;;;;;14.43;7.60;;;18.10;64.40;;;;;;10391953;28;20042;-50
2022/05/07 10:28:14;;;;;;;16.30;8.85;;;18.10;64.40;;;;;;10414485;28;20076;-51
2022/05/07 10:33:15;;;;;;;15.45;8.55;;;18.20;64.60;;;;;;10419060;28;20025;-47
2022/05/07 10:38:36;;;;;;;14.05;8.50;;;18.20;64.60;;;;;;10418936;28;20044;-48
2022/05/07 10:43:39;;;;;;;15.25;9.50;;;18.20;64.50;;;;;;10419249;28;20033;-47
2022/05/07 10:49:04;;;;;;;15.25;8.85;;;18.20;64.60;;;;;;10418848;28;20041;-49
2022/05/07 10:54:24;;;;;;;16.73;9.57;;;18.30;64.50;;;;;;10418975;28;20581;-48
2022/05/07 10:59:27;;;;;;;15.63;8.65;;;18.30;64.40;;;;;;10417041;28;20044;-48
2022/05/07 11:04:27;;;;;;;18.48;8.68;;;18.30;64.60;;;;;;10416807;28;20030;-45
2022/05/07 11:09:28;;;;;;;11.80;8.18;;;18.30;64.60;;;;;;10417968;28;20076;-47
2022/05/07 11:14:32;;;;;;;14.15;8.15;;;18.20;64.60;;;;;;10416903;28;20045;-48
2022/05/07 11:19:36;;;;;;;15.40;7.85;;;18.20;64.70;;;;;;10417294;28;20060;-50
2022/05/07 11:24:37;;;;;;;29.13;10.50;;;18.10;64.70;;;;;;10414664;28;20029;-54
2022/05/07 11:29:40;;;;;;;25.25;9.95;;;18.10;65.40;;;;;;10415387;28;20046;-53
2022/05/07 11:34:41;;;;;;;40.00;13.50;;;18.10;65.70;;;;;;10416174;28;20120;-48
2022/05/07 11:40:01;;;;;;;37.40;10.80;;;18.10;66.40;;;;;;10415231;28;20103;-50
2022/05/07 11:45:26;;;;;;;41.78;10.30;;;18.10;67.20;;;;;;10416559;28;20037;-51
2022/05/07 11:50:40;;;;;;;42.47;11.63;;;18.10;67.40;;;;;;10416524;28;20060;-49
2022/05/07 11:55:42;;;;;;;30.63;9.35;;;18.10;67.80;;;;;;10415118;28;20124;-50
2022/05/07 12:00:48;;;;;;;29.20;9.82;;;18.10;68.10;;;;;;10402941;28;20052;-50
2022/05/07 12:05:54;;;;;;;23.05;9.18;;;18.10;68.50;;;;;;10415963;28;20467;-50
2022/05/07 12:10:55;;;;;;;23.65;8.93;;;18.10;68.70;;;;;;10397976;28;20083;-53
2022/05/07 12:29:48;;;;;;;29.13;8.73;;;18.20;69.10;;;;;;10415344;28;20034;-54
2022/05/07 12:32:00;;;;;;;16.33;7.13;;;18.40;68.60;;;;;;10413376;28;20037;-55
2022/05/07 12:37:01;;;;;;;14.02;6.53;;;18.50;68.40;;;;;;10388875;28;20026;-55
2022/05/07 12:42:07;;;;;;;13.50;6.47;;;18.50;68.30;;;;;;10374016;28;20048;-55
2022/05/07 12:47:07;;;;;;;14.07;7.47;;;18.60;68.20;;;;;;10412828;28;20032;-54
2022/05/07 12:52:09;;;;;;;20.20;8.32;;;18.70;68.10;;;;;;10414134;28;20045;-54
2022/05/07 12:57:10;;;;;;;14.32;7.15;;;18.70;68.40;;;;;;10398047;28;20587;-54
2022/05/07 13:02:12;;;;;;;15.90;7.60;;;18.80;68.00;;;;;;10387652;28;20126;-55
2022/05/07 13:07:13;;;;;;;17.05;7.43;;;18.80;68.00;;;;;;10413427;28;20362;-54
2022/05/07 13:12:14;;;;;;;13.88;7.57;;;18.70;68.00;;;;;;10413678;28;20026;-55
2022/05/07 13:17:15;;;;;;;15.88;7.93;;;18.60;68.00;;;;;;10412067;28;20117;-55
2022/05/07 13:22:16;;;;;;;12.20;6.95;;;18.60;68.10;;;;;;10413273;28;20061;-55
2022/05/07 13:27:16;;;;;;;16.60;7.03;;;18.60;68.20;;;;;;10411314;28;20096;-55
2022/05/07 13:32:18;;;;;;;19.10;6.93;;;18.60;68.20;;;;;;10412060;28;20068;-55
2022/05/07 13:37:19;;;;;;;20.63;7.40;;;18.70;68.30;;;;;;10411599;28;20033;-54
2022/05/07 13:42:19;;;;;;;17.40;7.22;;;18.70;67.90;;;;;;10412632;28;20485;-51
2022/05/07 13:47:21;;;;;;;33.25;8.63;;;18.70;68.50;;;;;;10425131;28;20030;-53
2022/05/07 13:52:21;;;;;;;22.38;7.22;;;18.80;67.70;;;;;;10421172;28;20544;-54
2022/05/07 13:57:22;;;;;;;18.30;7.00;;;18.80;67.90;;;;;;10420963;28;20116;-55
2022/05/07 14:02:23;;;;;;;18.77;6.88;;;18.70;67.80;;;;;;10420834;28;20021;-55
2022/05/07 14:07:24;;;;;;;28.02;8.65;;;18.70;67.80;;;;;;10419886;28;20055;-55
2022/05/07 14:12:26;;;;;;;22.88;6.90;;;18.70;67.70;;;;;;10419947;28;20529;-55
2022/05/07 14:17:27;;;;;;;20.33;8.35;;;18.60;67.50;;;;;;10418698;28;20030;-56
2022/05/07 14:22:27;;;;;;;17.88;7.53;;;18.60;67.50;;;;;;10435198;28;20108;-56
2022/05/07 14:27:28;;;;;;;16.77;6.82;;;18.60;67.40;;;;;;10419476;28;20117;-55
2022/05/07 14:32:29;;;;;;;13.57;7.28;;;18.50;67.20;;;;;;10418981;28;20032;-55
2022/05/07 14:37:29;;;;;;;14.85;7.63;;;18.50;67.20;;;;;;10414806;28;20033;-56
2022/05/07 14:42:30;;;;;;;12.35;8.68;;;18.50;67.10;;;;;;10417503;28;20045;-56
2022/05/07 14:47:31;;;;;;;13.60;7.97;;;18.40;66.80;;;;;;10417998;28;22593;-56
2022/05/07 14:52:32;;;;;;;15.38;8.80;;;18.40;66.60;;;;;;10418719;28;20026;-56
2022/05/07 14:57:33;;;;;;;11.55;7.15;;;18.40;66.50;;;;;;10400406;28;20562;-56
2022/05/07 15:02:33;;;;;;;13.43;7.93;;;18.40;67.00;;;;;;10378847;28;20111;-56
2022/05/07 15:07:34;;;;;;;10.88;6.47;;;18.40;66.40;;;;;;10398442;28;20069;-56
2022/05/07 15:12:34;;;;;;;11.88;7.05;;;18.40;66.40;;;;;;10418221;28;20068;-56
2022/05/07 15:17:35;;;;;;;12.60;6.95;;;18.40;66.30;;;;;;10417771;28;20133;-55
2022/05/07 15:22:37;;;;;;;13.23;6.50;;;18.40;66.30;;;;;;10417621;28;20101;-55
2022/05/07 15:27:37;;;;;;;10.18;5.53;;;18.40;66.20;;;;;;10417216;28;20447;-55
2022/05/07 15:37:57;;;;;;;14.03;6.80;;;18.40;66.10;;;;;;10416365;28;20037;-54
2022/05/07 15:42:58;;;;;;;24.48;7.50;;;18.40;66.30;;;;;;10408438;28;20108;-52
2022/05/07 15:48:03;;;;;;;17.80;7.10;;;18.40;67.10;;;;;;10411033;28;20045;-53
2022/05/07 15:53:03;;;;;;;16.17;6.03;;;18.40;67.70;;;;;;10415899;28;20032;-51
2022/05/07 15:58:04;;;;;;;12.98;6.43;;;18.40;67.30;;;;;;10416053;28;20040;-51
2022/05/07 16:03:05;;;;;;;11.05;5.60;;;18.40;67.30;;;;;;10415158;28;20033;-53
2022/05/07 16:08:06;;;;;;;13.55;6.38;;;18.40;67.50;;;;;;10391043;28;20029;-49
2022/05/07 16:13:08;;;;;;;17.17;7.57;;;18.40;67.80;;;;;;10426802;28;20041;-50
2022/05/07 16:18:09;;;;;;;14.98;6.55;;;18.50;69.40;;;;;;10406320;28;20121;-47
2022/05/07 16:28:29;;;;;;;14.37;7.43;;;18.50;68.20;;;;;;10424284;28;20081;-53
2022/05/07 16:33:30;;;;;;;8.80;6.53;;;18.50;68.00;;;;;;10413907;28;20053;-54
2022/05/07 16:38:30;;;;;;;16.25;7.05;;;18.50;66.60;;;;;;10414291;28;20111;-54
2022/05/07 16:43:31;;;;;;;11.15;6.65;;;18.40;67.90;;;;;;10413784;28;20028;-53
2022/05/07 16:48:32;;;;;;;14.15;7.72;;;18.40;67.50;;;;;;10413541;28;20057;-54
2022/05/07 16:53:32;;;;;;;16.60;8.85;;;18.40;68.00;;;;;;10410990;28;20065;-53
2022/05/07 16:58:34;;;;;;;14.05;6.40;;;18.50;67.60;;;;;;10412962;28;20044;-53
2022/05/07 17:03:35;;;;;;;10.05;6.43;;;18.50;67.30;;;;;;10410526;28;20087;-52
2022/05/07 17:08:36;;;;;;;12.02;6.72;;;18.70;66.50;;;;;;10411780;28;20120;-52
2022/05/07 17:13:36;;;;;;;12.40;7.53;;;18.80;66.10;;;;;;10413302;28;20056;-53
2022/05/07 17:18:37;;;;;;;10.65;6.72;;;18.90;66.20;;;;;;10412075;28;20079;-55
2022/05/07 17:23:38;;;;;;;12.15;7.00;;;18.90;66.70;;;;;;10412629;28;20125;-55
2022/05/07 17:28:39;;;;;;;14.88;6.97;;;19.00;66.60;;;;;;10412744;28;20654;-55
2022/05/07 17:33:42;;;;;;;12.95;7.45;;;19.10;66.90;;;;;;10412804;28;20091;-56
2022/05/07 17:38:43;;;;;;;8.18;6.57;;;19.00;67.30;;;;;;10412108;28;20033;-56
2022/05/07 17:43:44;;;;;;;10.23;6.38;;;19.30;66.60;;;;;;10412560;28;20033;-56
2022/05/07 17:54:05;;;;;;;9.87;5.40;;;19.10;66.60;;;;;;10408099;28;20033;-56
2022/05/07 17:59:09;;;;;;;8.80;5.53;;;19.10;66.70;;;;;;10410725;28;20271;-55
2022/05/07 18:04:11;;;;;;;9.57;5.60;;;19.00;67.20;;;;;;10409178;28;20460;-55
2022/05/07 18:09:12;;;;;;;7.75;4.97;;;18.90;67.80;;;;;;10403938;28;20025;-55
2022/05/07 18:14:14;;;;;;;9.48;4.95;;;18.90;67.60;;;;;;10426911;28;20029;-55
2022/05/07 18:19:15;;;;;;;8.27;5.65;;;18.80;68.10;;;;;;10411144;28;20458;-54
2022/05/07 18:24:16;;;;;;;8.30;5.10;;;18.70;67.90;;;;;;10411555;28;20399;-53
2022/05/07 18:29:17;;;;;;;8.60;5.18;;;18.70;68.00;;;;;;10411575;28;20073;-54
2022/05/07 18:34:17;;;;;;;6.43;4.85;;;18.70;67.90;;;;;;10418104;28;20534;-55
2022/05/07 18:44:38;;;;;;;6.63;4.47;;;18.70;67.80;;;;;;10419039;28;20041;-54
2022/05/07 18:49:38;;;;;;;8.52;4.38;;;18.60;67.70;;;;;;10418058;28;20619;-51
2022/05/07 18:54:39;;;;;;;6.22;4.18;;;18.60;67.60;;;;;;10417024;28;20175;-54
2022/05/07 18:59:40;;;;;;;7.30;3.88;;;18.60;67.60;;;;;;10434214;28;20385;-53
2022/05/07 19:04:40;;;;;;;5.80;3.90;;;18.60;67.60;;;;;;10417972;28;20085;-54
2022/05/07 19:09:41;;;;;;;5.40;3.15;;;18.50;67.40;;;;;;10418403;28;20532;-54
2022/05/07 19:14:46;;;;;;;9.25;4.43;;;18.50;67.20;;;;;;10417829;28;20091;-55
2022/05/07 19:19:47;;;;;;;8.98;3.83;;;18.50;67.10;;;;;;10416293;28;20045;-54
2022/05/07 19:24:48;;;;;;;6.32;4.10;;;18.50;67.10;;;;;;10412629;28;20073;-55
2022/05/07 19:29:48;;;;;;;7.00;4.60;;;18.50;67.10;;;;;;10415285;28;20073;-53
2022/05/07 19:34:49;;;;;;;7.13;3.88;;;18.50;67.40;;;;;;10416318;28;20076;-56
2022/05/07 19:39:57;;;;;;;8.68;3.40;;;18.50;67.20;;;;;;10416863;28;20466;-55
2022/05/07 19:44:59;;;;;;;6.63;3.55;;;18.50;66.80;;;;;;10415324;28;20371;-55
2022/05/07 19:50:01;;;;;;;5.40;3.20;;;18.50;66.70;;;;;;10415947;28;20091;-54
2022/05/07 19:55:03;;;;;;;5.10;2.63;;;18.40;66.60;;;;;;10416080;28;20044;-52
2022/05/07 20:00:04;;;;;;;5.07;3.17;;;18.40;66.50;;;;;;10413467;28;20473;-53
2022/05/07 20:05:06;;;;;;;5.82;3.35;;;18.40;66.40;;;;;;10413978;28;20033;-52
2022/05/07 20:10:07;;;;;;;8.77;2.88;;;18.40;66.40;;;;;;10401178;28;20025;-53
2022/05/07 20:15:10;;;;;;;4.13;2.63;;;18.40;66.40;;;;;;10413476;28;20431;-51
2022/05/07 20:20:11;;;;;;;4.85;2.65;;;18.40;66.40;;;;;;10411134;28;20029;-52
2022/05/07 20:25:12;;;;;;;5.60;3.08;;;18.40;66.40;;;;;;10413910;28;20477;-52
2022/05/07 20:30:14;;;;;;;4.13;2.78;;;18.40;66.30;;;;;;10414627;28;20045;-52
2022/05/07 20:35:14;;;;;;;4.53;2.90;;;18.40;66.20;;;;;;10414000;28;20107;-51
2022/05/07 20:40:15;;;;;;;6.68;3.58;;;18.40;66.20;;;;;;10414765;28;20117;-51
2022/05/07 20:50:35;;;;;;;4.33;3.20;;;18.40;66.10;;;;;;10412032;28;20401;-51
2022/05/07 20:55:35;;;;;;;6.97;2.75;;;18.40;66.10;;;;;;10412390;28;20025;-51
2022/05/07 21:00:36;;;;;;;4.72;2.40;;;18.30;66.00;;;;;;10414073;28;20036;-52
2022/05/07 21:05:37;;;;;;;2.92;1.85;;;18.30;65.90;;;;;;10429339;28;20079;-52
2022/05/07 21:10:38;;;;;;;4.63;2.58;;;18.30;65.80;;;;;;10413665;28;20133;-51
2022/05/07 21:15:38;;;;;;;3.28;2.38;;;18.30;65.80;;;;;;10409246;28;20061;-51
2022/05/07 21:20:39;;;;;;;3.70;2.65;;;18.30;65.80;;;;;;10413553;28;20061;-48
2022/05/07 21:30:59;;;;;;;4.00;2.80;;;18.30;65.60;;;;;;10412168;28;20045;-51
2022/05/07 21:36:01;;;;;;;4.22;2.55;;;18.20;65.50;;;;;;10412703;28;20071;-52
2022/05/07 21:41:02;;;;;;;4.32;2.17;;;18.30;65.50;;;;;;10412837;28;20026;-52
2022/05/07 21:46:04;;;;;;;3.67;2.13;;;18.20;65.40;;;;;;10408459;28;20029;-52
2022/05/07 21:56:29;;;;;;;2.83;2.15;;;18.30;65.40;;;;;;10412087;28;20128;-51
2022/05/07 22:01:29;;;;;;;3.08;1.88;;;18.20;65.20;;;;;;10412742;28;20107;-53
2022/05/07 22:06:31;;;;;;;2.83;1.80;;;18.20;65.30;;;;;;10416435;28;20125;-51
2022/05/07 22:11:32;;;;;;;3.22;2.35;;;18.20;65.20;;;;;;10396088;28;20494;-51
2022/05/07 22:16:33;;;;;;;4.15;1.98;;;18.20;65.20;;;;;;10420545;28;20029;-50
2022/05/07 22:21:33;;;;;;;3.35;1.90;;;18.20;65.20;;;;;;10412081;28;20127;-53
2022/05/07 22:26:36;;;;;;;3.88;2.08;;;18.20;65.20;;;;;;10413521;28;20061;-53
2022/05/07 22:31:37;;;;;;;3.42;2.30;;;18.20;65.10;;;;;;10418474;28;20075;-52
2022/05/07 22:36:38;;;;;;;7.55;2.25;;;18.20;65.00;;;;;;10419410;28;20049;-51
2022/05/07 22:41:38;;;;;;;4.43;2.10;;;18.20;65.00;;;;;;10419333;28;20041;-51
2022/05/07 22:46:39;;;;;;;3.50;2.03;;;18.20;65.00;;;;;;10419184;28;20385;-53
2022/05/07 22:51:40;;;;;;;3.40;2.15;;;18.20;65.00;;;;;;10417243;28;20091;-53
2022/05/07 22:56:40;;;;;;;3.13;2.00;;;18.10;65.00;;;;;;10417509;28;20049;-52
2022/05/07 23:01:41;;;;;;;4.45;2.42;;;18.10;64.90;;;;;;10415814;28;20112;-49
2022/05/07 23:06:42;;;;;;;3.70;1.88;;;18.10;64.90;;;;;;10418236;28;20440;-51
2022/05/07 23:11:42;;;;;;;3.95;2.03;;;18.10;65.00;;;;;;10418275;28;20025;-49
2022/05/07 23:16:43;;;;;;;4.32;2.08;;;18.10;64.90;;;;;;10417203;28;20471;-52
2022/05/07 23:21:44;;;;;;;3.65;2.17;;;18.10;64.90;;;;;;10424966;28;20043;-50
2022/05/07 23:26:45;;;;;;;3.30;2.00;;;18.10;64.90;;;;;;10412728;28;20163;-51
2022/05/07 23:31:45;;;;;;;4.40;3.45;;;18.10;65.40;;;;;;10415938;28;20081;-52
2022/05/07 23:36:46;;;;;;;5.05;2.00;;;18.10;64.80;;;;;;10415816;28;20116;-53
2022/05/07 23:41:46;;;;;;;3.63;2.00;;;18.10;64.80;;;;;;10415675;28;20545;-52
2022/05/07 23:46:48;;;;;;;3.33;2.55;;;18.00;64.80;;;;;;10432217;28;20057;-51
2022/05/07 23:51:48;;;;;;;4.20;2.33;;;18.10;64.80;;;;;;10416550;28;20052;-53
2022/05/07 23:56:49;;;;;;;4.60;2.90;;;18.10;64.80;;;;;;10416634;28;20108;-52
